Time;durP1;ratioP1;P1;durP2;ratioP2;P2;SDS_P1;SDS_P2;PMS_P1;PMS_P2;Temp;Humidity;BMP_temperature;BMP_pressure;BME280_temperature;BME280_humidity;BME280_pressure;Samples;Min_cycle;Max_cycle;Signal;HPM_P1;HPM_P2
2022/05/28 00:00:51;;;;;;;1.10;0.90;;;15.70;99.90;;;;;;5093399;28;20443;-44
2022/05/28 00:03:18;;;;;;;1.20;0.77;;;15.80;99.90;;;;;;5093407;28;20461;-44
2022/05/28 00:05:45;;;;;;;1.47;0.90;;;15.60;99.90;;;;;;5093251;28;20991;-45
2022/05/28 00:08:12;;;;;;;1.20;0.77;;;15.80;99.90;;;;;;5093248;28;20474;-44
2022/05/28 00:10:39;;;;;;;1.10;0.80;;;16.00;99.90;;;;;;5092956;28;20482;-44
2022/05/28 00:13:08;;;;;;;1.47;0.60;;;16.10;99.90;;;;;;5093261;28;20487;-43
2022/05/28 00:15:35;;;;;;;1.77;0.90;;;16.00;99.90;;;;;;5137047;22;20937;-45
2022/05/28 00:18:02;;;;;;;1.00;0.60;;;16.20;99.90;;;;;;5072839;28;20475;-46
2022/05/28 00:20:30;;;;;;;1.50;0.57;;;16.20;99.90;;;;;;5072720;28;20925;-45
2022/05/28 00:22:57;;;;;;;1.00;0.50;;;16.30;99.90;;;;;;5072470;28;20441;-45
2022/05/28 00:25:24;;;;;;;1.10;0.80;;;16.30;99.90;;;;;;5072808;28;20472;-45
2022/05/28 00:27:51;;;;;;;1.10;0.60;;;16.40;99.90;;;;;;5072806;28;20440;-44
2022/05/28 00:30:19;;;;;;;1.10;0.70;;;16.30;99.90;;;;;;5072321;28;20440;-45
2022/05/28 00:32:47;;;;;;;2.30;0.70;;;16.40;99.90;;;;;;5072702;28;20516;-45
2022/05/28 00:35:18;;;;;;;1.37;0.50;;;16.30;99.90;;;;;;5072403;28;20492;-45
2022/05/28 00:37:47;;;;;;;1.00;0.77;;;16.30;99.90;;;;;;5072563;28;20538;-45
2022/05/28 00:40:17;;;;;;;1.23;0.90;;;16.40;99.90;;;;;;5072230;28;20443;-46
2022/05/28 00:42:44;;;;;;;1.00;0.70;;;16.10;99.90;;;;;;5072744;28;20437;-45
2022/05/28 00:45:11;;;;;;;1.20;0.80;;;16.00;99.90;;;;;;5071963;28;20502;-45
2022/05/28 00:47:46;;;;;;;1.20;0.80;;;16.00;99.90;;;;;;5072380;28;20440;-45
2022/05/28 00:50:14;;;;;;;1.10;0.60;;;15.50;99.90;;;;;;5071930;28;20478;-45
2022/05/28 00:52:42;;;;;;;1.10;0.60;;;15.70;99.90;;;;;;5072299;28;20451;-45
2022/05/28 00:55:10;;;;;;;1.00;0.60;;;15.50;99.90;;;;;;5072080;28;20547;-46
2022/05/28 00:57:40;;;;;;;0.90;0.60;;;15.50;99.90;;;;;;5072099;28;20472;-45
2022/05/28 01:00:08;;;;;;;1.97;0.70;;;15.60;99.90;;;;;;5071845;28;20455;-46
2022/05/28 01:02:46;;;;;;;1.10;0.70;;;15.70;99.90;;;;;;5071940;28;20779;-45
2022/05/28 01:05:20;;;;;;;1.10;0.60;;;15.80;99.90;;;;;;5071859;28;20563;-44
2022/05/28 01:07:55;;;;;;;1.07;0.77;;;15.40;99.90;;;;;;5071843;28;20444;-46
2022/05/28 01:10:29;;;;;;;1.00;0.60;;;15.10;99.90;;;;;;5071708;28;20436;-45
2022/05/28 01:13:01;;;;;;;1.10;0.67;;;15.00;99.90;;;;;;5071673;28;20497;-47
2022/05/28 01:15:33;;;;;;;0.97;0.50;;;15.00;99.90;;;;;;5071667;28;20500;-44
2022/05/28 01:18:09;;;;;;;1.93;0.60;;;14.60;99.90;;;;;;5071972;28;20472;-45
2022/05/28 01:20:40;;;;;;;1.00;0.70;;;14.50;99.90;;;;;;5071364;28;20440;-48
2022/05/28 01:23:32;;;;;;;1.00;0.60;;;14.50;99.90;;;;;;5071720;28;20444;-46
2022/05/28 01:26:07;;;;;;;1.30;0.67;;;14.20;99.90;;;;;;5071412;28;21074;-45
2022/05/28 01:28:38;;;;;;;1.10;0.60;;;14.10;99.90;;;;;;5071815;28;20478;-44
2022/05/28 01:31:06;;;;;;;1.30;0.60;;;14.20;99.90;;;;;;5071653;28;20445;-44
2022/05/28 01:33:35;;;;;;;1.10;0.50;;;14.10;99.90;;;;;;5070929;28;20480;-45
2022/05/28 01:36:05;;;;;;;0.90;0.60;;;14.00;99.90;;;;;;5071543;28;20462;-47
2022/05/28 01:38:34;;;;;;;1.20;0.60;;;13.90;99.90;;;;;;5071799;28;20475;-44
2022/05/28 01:41:01;;;;;;;1.00;0.67;;;14.00;99.90;;;;;;5071331;28;20440;-48
2022/05/28 01:43:29;;;;;;;1.07;0.60;;;14.00;99.90;;;;;;5071152;28;20472;-44
2022/05/28 01:45:58;;;;;;;1.30;0.73;;;14.10;99.90;;;;;;5071637;28;20484;-45
2022/05/28 01:48:27;;;;;;;0.90;0.50;;;14.10;99.90;;;;;;5071647;28;20476;-45
2022/05/28 01:50:56;;;;;;;1.00;0.60;;;14.10;99.90;;;;;;5071060;28;20952;-45
2022/05/28 01:56:11;;;;;;;1.10;0.63;;;14.10;99.90;;;;;;5071488;28;20498;-45
2022/05/28 01:58:39;;;;;;;1.07;0.60;;;14.10;99.90;;;;;;5071243;28;20486;-48
2022/05/28 02:01:09;;;;;;;0.90;0.50;;;14.10;99.90;;;;;;5071023;28;20433;-44
2022/05/28 02:03:44;;;;;;;1.10;0.70;;;14.00;99.90;;;;;;5071338;28;20444;-44
2022/05/28 02:06:11;;;;;;;0.90;0.60;;;14.00;99.90;;;;;;5071131;28;20479;-46
2022/05/28 02:08:41;;;;;;;1.00;0.80;;;14.10;99.90;;;;;;5071116;28;20479;-48
2022/05/28 02:11:14;;;;;;;0.90;0.50;;;14.10;99.90;;;;;;5071530;28;20443;-45
2022/05/28 02:13:55;;;;;;;1.30;0.80;;;14.00;99.90;;;;;;5071139;28;20487;-44
2022/05/28 02:16:30;;;;;;;1.10;0.70;;;14.00;99.90;;;;;;5071069;28;20435;-44
2022/05/28 02:19:00;;;;;;;3.10;1.00;;;14.00;99.90;;;;;;5071124;28;20526;-48
2022/05/28 02:21:34;;;;;;;1.43;0.87;;;13.90;99.90;;;;;;5071177;28;20440;-44
2022/05/28 02:24:05;;;;;;;1.70;0.90;;;13.90;99.90;;;;;;5071256;28;20479;-44
2022/05/28 02:26:41;;;;;;;0.97;0.57;;;14.00;99.90;;;;;;5071251;28;20478;-45
2022/05/28 02:29:08;;;;;;;1.00;0.70;;;14.10;99.90;;;;;;5070547;28;20953;-47
2022/05/28 02:31:37;;;;;;;2.03;0.87;;;14.00;99.90;;;;;;5070835;28;20952;-45
2022/05/28 02:34:05;;;;;;;1.10;0.80;;;14.10;99.90;;;;;;5070810;28;20464;-45
2022/05/28 02:36:32;;;;;;;1.90;0.80;;;14.20;99.90;;;;;;5070826;28;20937;-44
2022/05/28 02:38:59;;;;;;;1.77;0.80;;;14.30;99.90;;;;;;5070557;28;20485;-47
2022/05/28 02:41:26;;;;;;;4.37;1.00;;;14.40;99.90;;;;;;5070799;28;20472;-46
2022/05/28 02:43:53;;;;;;;1.10;0.80;;;14.50;99.90;;;;;;5070719;28;20440;-48
2022/05/28 02:46:20;;;;;;;2.47;1.00;;;14.60;99.90;;;;;;5072145;28;20472;-45
2022/05/28 02:48:49;;;;;;;1.10;0.77;;;14.60;99.90;;;;;;5074467;28;20444;-46
2022/05/28 02:51:18;;;;;;;1.93;0.87;;;14.70;99.90;;;;;;5074981;28;20444;-45
2022/05/28 02:53:46;;;;;;;4.40;1.60;;;14.90;99.90;;;;;;5074504;28;20802;-47
2022/05/28 02:56:13;;;;;;;1.23;0.93;;;15.10;99.90;;;;;;5074299;28;20440;-44
2022/05/28 02:58:41;;;;;;;1.23;0.90;;;15.30;99.90;;;;;;5074417;28;20478;-44
2022/05/28 03:01:18;;;;;;;1.00;0.60;;;15.50;99.90;;;;;;5073891;28;21002;-48
2022/05/28 03:03:45;;;;;;;1.40;1.00;;;15.50;99.90;;;;;;5074238;28;20937;-45
2022/05/28 03:06:14;;;;;;;1.47;1.03;;;15.40;99.90;;;;;;5074103;28;20504;-45
2022/05/28 03:08:41;;;;;;;2.17;1.07;;;15.20;99.90;;;;;;5073898;28;20929;-45
2022/05/28 03:11:08;;;;;;;1.80;1.10;;;15.10;99.90;;;;;;5073873;28;20502;-44
2022/05/28 03:13:35;;;;;;;1.50;1.00;;;15.20;99.90;;;;;;5074200;28;20440;-45
2022/05/28 03:16:02;;;;;;;3.23;1.20;;;14.70;99.90;;;;;;5073814;28;20543;-45
2022/05/28 03:18:29;;;;;;;2.07;1.20;;;14.50;99.90;;;;;;5074340;28;20456;-47
2022/05/28 03:20:56;;;;;;;1.63;1.30;;;14.60;99.90;;;;;;5073882;28;20487;-44
2022/05/28 03:23:24;;;;;;;1.50;1.27;;;14.40;99.90;;;;;;5074240;28;20884;-44
2022/05/28 03:25:51;;;;;;;2.70;1.33;;;14.20;99.90;;;;;;5073844;28;21028;-45
2022/05/28 03:28:18;;;;;;;1.50;1.10;;;14.20;99.90;;;;;;5073851;28;21002;-45
2022/05/28 03:30:45;;;;;;;1.53;1.17;;;14.20;99.90;;;;;;5073755;28;20532;-44
2022/05/28 03:33:12;;;;;;;1.70;1.20;;;14.40;99.90;;;;;;5073693;28;20491;-48
2022/05/28 03:35:40;;;;;;;1.50;0.90;;;14.60;99.90;;;;;;5073691;28;20488;-45
2022/05/28 03:38:07;;;;;;;1.60;1.13;;;14.70;99.90;;;;;;5073675;28;20456;-45
2022/05/28 03:40:35;;;;;;;2.47;1.20;;;14.80;99.90;;;;;;5073757;28;20505;-48
2022/05/28 03:43:06;;;;;;;1.40;1.30;;;14.70;99.90;;;;;;5073858;28;20440;-47
2022/05/28 03:45:33;;;;;;;1.97;1.57;;;14.60;99.90;;;;;;5073924;28;20472;-45
2022/05/28 03:48:00;;;;;;;3.50;1.60;;;14.40;99.90;;;;;;5073432;28;20559;-45
2022/05/28 03:50:27;;;;;;;1.40;1.30;;;14.30;99.90;;;;;;5073562;28;20502;-45
2022/05/28 03:52:54;;;;;;;2.23;1.57;;;14.40;99.90;;;;;;5073481;28;20444;-44
2022/05/28 03:55:21;;;;;;;1.93;1.30;;;14.60;99.90;;;;;;5073598;28;20595;-44
2022/05/28 03:57:49;;;;;;;1.30;0.93;;;14.70;99.90;;;;;;5073064;28;20490;-45
2022/05/28 04:00:17;;;;;;;2.63;2.43;;;14.90;99.90;;;;;;5073243;28;20475;-44
2022/05/28 04:02:44;;;;;;;1.70;1.60;;;15.00;99.90;;;;;;5073162;28;20477;-44
2022/05/28 04:05:11;;;;;;;2.50;1.50;;;15.10;99.90;;;;;;5073192;28;21166;-44
2022/05/28 04:07:38;;;;;;;1.80;1.40;;;14.90;99.90;;;;;;5073408;28;20476;-45
2022/05/28 04:10:07;;;;;;;3.67;1.60;;;14.80;99.90;;;;;;5073178;28;20472;-44
2022/05/28 04:12:35;;;;;;;1.53;1.40;;;14.80;99.90;;;;;;5073028;28;20498;-48
2022/05/28 04:15:03;;;;;;;3.10;1.20;;;14.70;99.90;;;;;;5073124;28;20500;-44
2022/05/28 04:17:30;;;;;;;1.80;1.23;;;14.70;99.90;;;;;;5073165;28;20726;-44
2022/05/28 04:19:57;;;;;;;2.00;1.13;;;14.40;99.90;;;;;;5072598;28;20538;-45
2022/05/28 04:22:25;;;;;;;1.80;1.50;;;14.10;99.90;;;;;;5073114;28;20444;-45
2022/05/28 04:24:52;;;;;;;2.20;1.27;;;14.20;99.90;;;;;;5072839;28;20467;-44
2022/05/28 04:27:19;;;;;;;2.23;1.50;;;14.30;99.90;;;;;;5072446;28;20472;-48
2022/05/28 04:29:46;;;;;;;2.33;1.33;;;14.50;99.90;;;;;;5072360;28;20578;-45
2022/05/28 04:32:14;;;;;;;3.77;1.47;;;14.60;99.90;;;;;;5072717;28;20452;-44
2022/05/28 04:34:41;;;;;;;2.07;1.07;;;14.70;99.90;;;;;;5072831;28;20886;-45
2022/05/28 04:37:08;;;;;;;2.07;1.20;;;14.60;99.90;;;;;;5072890;28;20519;-45
2022/05/28 04:39:35;;;;;;;2.20;1.40;;;14.70;99.90;;;;;;5072428;28;20523;-45
2022/05/28 04:42:02;;;;;;;2.57;1.83;;;14.80;99.90;;;;;;5072519;28;20444;-45
2022/05/28 04:44:29;;;;;;;1.90;1.70;;;14.90;99.90;;;;;;5072666;28;20492;-44
2022/05/28 04:46:56;;;;;;;1.60;1.20;;;15.10;99.90;;;;;;5072355;28;20529;-48
2022/05/28 04:49:24;;;;;;;1.83;1.20;;;15.10;99.90;;;;;;5072182;28;20445;-45
2022/05/28 04:51:51;;;;;;;1.90;1.60;;;15.10;99.90;;;;;;5072368;28;20491;-45
2022/05/28 04:54:18;;;;;;;2.67;1.50;;;15.00;99.90;;;;;;5072233;28;20510;-44
2022/05/28 04:56:45;;;;;;;1.83;1.60;;;15.00;99.90;;;;;;5072026;28;20436;-45
2022/05/28 04:59:12;;;;;;;1.70;1.57;;;15.00;99.90;;;;;;5072042;28;20444;-44
2022/05/28 05:01:39;;;;;;;1.63;1.47;;;15.00;99.90;;;;;;5072345;28;20532;-46
2022/05/28 05:04:06;;;;;;;2.13;1.13;;;15.10;99.90;;;;;;5071849;28;20540;-45
2022/05/28 05:06:34;;;;;;;3.13;1.53;;;15.10;99.90;;;;;;5071791;28;20476;-44
2022/05/28 05:09:01;;;;;;;1.60;1.20;;;15.20;99.90;;;;;;5070812;28;20483;-48
2022/05/28 05:11:28;;;;;;;2.70;1.43;;;15.20;99.90;;;;;;5072131;28;20440;-45
2022/05/28 05:13:55;;;;;;;3.47;1.30;;;15.20;99.90;;;;;;5072007;28;20452;-45
2022/05/28 05:16:22;;;;;;;1.50;1.40;;;15.20;99.90;;;;;;5071761;28;20933;-46
2022/05/28 05:18:49;;;;;;;3.13;1.20;;;15.20;99.90;;;;;;5071400;28;20440;-44
2022/05/28 05:21:16;;;;;;;1.53;1.43;;;15.20;99.90;;;;;;5071682;28;20818;-47
2022/05/28 05:23:45;;;;;;;1.80;1.60;;;15.00;99.90;;;;;;5071648;28;20476;-44
2022/05/28 05:26:13;;;;;;;2.00;1.77;;;15.10;99.90;;;;;;5071650;28;20817;-47
2022/05/28 05:28:40;;;;;;;1.53;1.40;;;15.10;99.90;;;;;;5071402;28;20829;-46
2022/05/28 05:31:07;;;;;;;4.30;1.53;;;14.90;99.90;;;;;;5071894;28;20468;-44
2022/05/28 05:33:34;;;;;;;2.03;1.53;;;14.80;99.90;;;;;;5071300;28;20448;-45
2022/05/28 05:36:01;;;;;;;2.40;1.50;;;14.80;99.90;;;;;;5071276;28;20500;-47
2022/05/28 05:38:28;;;;;;;5.10;2.00;;;14.90;99.90;;;;;;5071426;28;20440;-45
2022/05/28 05:40:56;;;;;;;2.00;1.50;;;15.00;99.90;;;;;;5071549;28;20476;-45
2022/05/28 05:43:23;;;;;;;2.03;1.43;;;15.20;99.90;;;;;;5071534;28;20811;-44
2022/05/28 05:45:54;;;;;;;4.50;2.00;;;15.40;99.90;;;;;;5071494;28;20492;-45
2022/05/28 05:48:21;;;;;;;2.17;1.63;;;15.50;99.90;;;;;;5071361;28;20571;-45
2022/05/28 05:50:48;;;;;;;3.10;2.03;;;15.50;99.90;;;;;;5070998;28;20444;-45
2022/05/28 05:53:15;;;;;;;1.80;1.67;;;15.50;99.90;;;;;;5071327;28;20925;-45
2022/05/28 05:55:42;;;;;;;2.40;2.20;;;15.50;99.90;;;;;;5071102;28;21058;-44
2022/05/28 05:58:11;;;;;;;2.90;1.93;;;15.50;99.90;;;;;;5071311;28;20475;-46
2022/05/28 06:00:39;;;;;;;2.00;1.63;;;15.50;99.90;;;;;;5071280;28;20818;-44
2022/05/28 06:03:06;;;;;;;2.10;1.67;;;15.50;99.90;;;;;;5071198;28;20448;-44
2022/05/28 06:05:33;;;;;;;2.63;1.90;;;15.60;99.90;;;;;;5071282;28;20460;-45
2022/05/28 06:08:00;;;;;;;2.67;2.43;;;15.60;99.90;;;;;;5071272;28;20518;-45
2022/05/28 06:10:27;;;;;;;3.83;2.10;;;15.60;99.90;;;;;;5070832;28;20921;-49
2022/05/28 06:12:54;;;;;;;2.43;2.23;;;15.70;99.90;;;;;;5070998;28;20476;-44
2022/05/28 06:15:22;;;;;;;2.97;1.70;;;15.60;99.90;;;;;;5135651;22;20512;-44
2022/05/28 06:17:49;;;;;;;2.23;2.00;;;15.40;99.90;;;;;;5091282;28;20459;-47
2022/05/28 06:20:16;;;;;;;1.90;1.50;;;15.30;99.90;;;;;;5092106;28;20474;-44
2022/05/28 06:22:44;;;;;;;1.80;1.47;;;15.20;99.90;;;;;;5095202;28;20439;-44
2022/05/28 06:25:11;;;;;;;2.60;1.20;;;15.00;99.90;;;;;;5095529;28;20455;-44
2022/05/28 06:27:38;;;;;;;2.50;1.50;;;15.00;99.90;;;;;;5095122;28;20557;-49
2022/05/28 06:30:06;;;;;;;1.83;1.57;;;15.00;99.90;;;;;;5094935;28;20485;-44
2022/05/28 06:32:35;;;;;;;2.30;1.70;;;15.00;99.90;;;;;;5095318;28;20501;-44
2022/05/28 06:35:02;;;;;;;2.90;1.67;;;15.00;99.90;;;;;;5095194;28;20517;-44
2022/05/28 06:37:29;;;;;;;2.20;1.97;;;14.90;99.90;;;;;;5095104;28;20471;-43
2022/05/28 06:39:56;;;;;;;2.10;1.80;;;14.90;99.90;;;;;;5095100;28;20489;-44
2022/05/28 06:42:23;;;;;;;2.90;1.90;;;15.00;99.90;;;;;;5095115;28;20443;-44
2022/05/28 06:44:50;;;;;;;1.97;1.77;;;15.10;99.90;;;;;;5094938;28;20972;-44
2022/05/28 06:47:17;;;;;;;2.00;1.80;;;15.20;99.90;;;;;;5094929;28;20554;-45
2022/05/28 06:51:01;;;;;;;2.57;2.30;;;15.30;99.90;;;;;;5094663;28;20440;-46
2022/05/28 06:52:32;;;;;;;2.33;1.97;;;15.40;99.90;;;;;;5094818;28;20540;-44
2022/05/28 06:54:59;;;;;;;3.97;2.27;;;15.40;99.90;;;;;;5094774;28;20550;-44
2022/05/28 06:57:27;;;;;;;2.57;2.00;;;15.50;99.90;;;;;;5095276;28;20584;-48
2022/05/28 06:59:53;;;;;;;3.70;1.90;;;15.50;99.90;;;;;;5094609;28;20470;-44
2022/05/28 07:02:20;;;;;;;2.10;1.90;;;15.60;99.90;;;;;;5094522;28;20450;-46
2022/05/28 07:04:49;;;;;;;3.33;2.40;;;15.60;99.90;;;;;;5094613;28;20844;-44
2022/05/28 07:07:16;;;;;;;2.00;1.73;;;15.70;99.90;;;;;;5094334;28;21042;-44
2022/05/28 07:09:43;;;;;;;2.13;1.90;;;15.70;99.90;;;;;;5094367;28;20435;-44
2022/05/28 07:12:10;;;;;;;3.43;2.13;;;15.70;99.90;;;;;;5094385;28;20948;-44
2022/05/28 07:14:38;;;;;;;3.40;2.60;;;15.80;99.90;;;;;;5094298;28;20471;-43
2022/05/28 07:17:05;;;;;;;2.70;2.40;;;15.80;99.90;;;;;;5094597;28;20467;-48
2022/05/28 07:19:32;;;;;;;2.83;2.20;;;15.90;99.90;;;;;;5093888;28;20465;-44
2022/05/28 07:22:00;;;;;;;5.47;1.80;;;15.80;99.90;;;;;;5094216;28;20903;-44
2022/05/28 07:24:27;;;;;;;1.97;1.73;;;15.70;99.90;;;;;;5093980;28;21005;-44
2022/05/28 07:26:54;;;;;;;2.53;2.33;;;15.60;99.90;;;;;;5094003;28;20439;-45
2022/05/28 07:29:21;;;;;;;2.43;2.10;;;15.70;99.90;;;;;;5094027;28;20486;-44
2022/05/28 07:31:48;;;;;;;2.57;2.30;;;15.80;99.90;;;;;;5093213;28;20482;-45
2022/05/28 07:34:15;;;;;;;2.30;2.03;;;15.90;99.90;;;;;;5093902;28;20440;-44
2022/05/28 07:36:42;;;;;;;2.30;2.03;;;15.90;99.90;;;;;;5093915;28;21165;-44
2022/05/28 07:39:11;;;;;;;2.30;2.07;;;16.00;99.90;;;;;;5093972;28;20436;-44
2022/05/28 07:41:38;;;;;;;5.23;2.30;;;16.00;99.90;;;;;;5094352;28;20472;-44
2022/05/28 07:44:05;;;;;;;3.30;2.03;;;16.10;99.90;;;;;;5093562;28;20530;-44
2022/05/28 07:46:34;;;;;;;2.53;2.00;;;16.20;99.90;;;;;;5093854;28;20463;-44
2022/05/28 07:49:04;;;;;;;4.43;2.20;;;16.20;99.90;;;;;;5093421;28;20552;-43
2022/05/28 07:51:31;;;;;;;2.57;2.00;;;16.30;99.90;;;;;;5093515;28;20486;-47
2022/05/28 07:53:58;;;;;;;3.77;1.87;;;16.20;99.90;;;;;;5093597;28;20994;-44
2022/05/28 07:56:27;;;;;;;2.13;1.80;;;16.20;99.90;;;;;;5093515;28;21007;-43
2022/05/28 07:58:54;;;;;;;3.27;2.40;;;16.30;99.90;;;;;;5093498;28;20932;-50
2022/05/28 08:01:23;;;;;;;4.53;2.43;;;16.30;99.90;;;;;;5093537;28;21017;-44
2022/05/28 08:03:50;;;;;;;2.43;2.23;;;16.10;99.90;;;;;;5093578;28;20673;-44
2022/05/28 08:06:18;;;;;;;2.20;1.97;;;16.00;99.90;;;;;;5093445;28;20459;-44
2022/05/28 08:08:45;;;;;;;3.00;2.33;;;15.90;99.90;;;;;;5093066;28;20471;-44
2022/05/28 08:11:12;;;;;;;3.07;2.00;;;15.80;99.90;;;;;;5093367;28;20440;-44
2022/05/28 08:13:41;;;;;;;2.60;2.10;;;15.80;99.90;;;;;;5093558;28;20471;-44
2022/05/28 08:16:08;;;;;;;2.53;2.33;;;15.90;99.90;;;;;;5093050;28;20471;-44
2022/05/28 08:18:36;;;;;;;2.63;1.90;;;15.90;99.90;;;;;;5092869;28;20938;-44
2022/05/28 08:23:48;;;;;;;3.13;1.90;;;16.10;99.90;;;;;;5093298;28;20493;-44
2022/05/28 08:26:19;;;;;;;3.07;2.47;;;16.00;99.90;;;;;;5092910;28;20463;-49
2022/05/28 08:28:48;;;;;;;2.17;1.97;;;16.10;99.90;;;;;;5092553;28;20502;-48
2022/05/28 08:31:15;;;;;;;2.57;2.13;;;16.10;99.90;;;;;;5093065;28;20543;-44
2022/05/28 08:33:43;;;;;;;2.00;1.57;;;15.90;99.90;;;;;;5092747;28;20444;-44
2022/05/28 08:36:11;;;;;;;1.70;1.47;;;15.90;99.90;;;;;;5093384;28;20463;-49
2022/05/28 08:38:39;;;;;;;1.83;1.73;;;15.90;99.90;;;;;;5092857;28;20485;-44
2022/05/28 08:41:12;;;;;;;2.10;1.70;;;15.90;99.90;;;;;;5092727;28;20439;-48
2022/05/28 08:43:42;;;;;;;1.80;1.40;;;16.00;99.90;;;;;;5092702;28;20531;-47
2022/05/28 08:46:14;;;;;;;2.10;1.50;;;15.90;99.90;;;;;;5092857;28;20463;-44
2022/05/28 08:48:45;;;;;;;2.87;1.50;;;15.90;99.90;;;;;;5092227;28;20471;-47
2022/05/28 08:51:17;;;;;;;2.07;1.57;;;16.00;99.90;;;;;;5092434;28;20866;-45
2022/05/28 08:53:49;;;;;;;2.17;1.70;;;16.10;99.90;;;;;;5092594;28;20870;-44
2022/05/28 08:56:21;;;;;;;2.60;1.67;;;16.20;99.90;;;;;;5092442;28;20463;-44
2022/05/28 08:58:51;;;;;;;1.60;1.50;;;16.40;99.90;;;;;;5092131;28;20512;-47
2022/05/28 09:01:21;;;;;;;2.70;1.50;;;16.40;99.90;;;;;;5092311;28;20496;-48
2022/05/28 09:03:54;;;;;;;2.33;1.60;;;16.50;99.90;;;;;;5092129;28;20523;-45
2022/05/28 09:06:25;;;;;;;3.17;1.80;;;16.60;99.90;;;;;;5092219;28;20477;-44
2022/05/28 09:08:54;;;;;;;3.00;1.67;;;16.70;99.90;;;;;;5092107;28;20530;-49
2022/05/28 09:11:29;;;;;;;3.17;1.90;;;16.70;99.90;;;;;;5092176;28;20505;-44
2022/05/28 09:13:57;;;;;;;2.40;1.73;;;16.80;99.90;;;;;;5092334;28;20462;-44
2022/05/28 09:16:29;;;;;;;2.90;2.20;;;16.80;99.90;;;;;;5091707;28;20468;-42
2022/05/28 09:19:00;;;;;;;2.53;2.00;;;16.70;99.90;;;;;;5091851;28;20444;-44
2022/05/28 09:21:27;;;;;;;1.57;1.47;;;16.60;99.90;;;;;;5091924;28;21107;-44
2022/05/28 09:23:58;;;;;;;3.30;2.10;;;16.30;99.90;;;;;;5092045;28;20467;-44
2022/05/28 09:26:31;;;;;;;3.77;2.43;;;15.90;99.90;;;;;;5092004;28;20956;-44
2022/05/28 09:29:15;;;;;;;6.20;2.13;;;16.00;99.90;;;;;;5091378;28;20999;-44
2022/05/28 09:31:54;;;;;;;2.33;2.13;;;16.00;99.90;;;;;;5091486;28;20443;-44
2022/05/28 09:34:36;;;;;;;3.73;2.30;;;16.10;99.90;;;;;;5092122;28;20439;-45
2022/05/28 09:37:08;;;;;;;2.33;2.10;;;16.20;99.90;;;;;;5091990;28;20444;-44
2022/05/28 09:39:44;;;;;;;5.60;3.00;;;16.30;99.90;;;;;;5091467;28;20467;-44
2022/05/28 09:42:21;;;;;;;2.43;2.23;;;16.30;99.90;;;;;;5091555;28;20485;-43
2022/05/28 09:45:03;;;;;;;7.23;2.60;;;16.20;99.90;;;;;;5091540;28;20459;-43
2022/05/28 09:47:44;;;;;;;7.03;2.43;;;16.20;99.90;;;;;;5091467;28;20465;-43
2022/05/28 09:50:20;;;;;;;3.20;2.23;;;16.30;99.90;;;;;;5091744;28;20806;-43
2022/05/28 09:55:41;;;;;;;2.20;2.00;;;16.00;99.90;;;;;;5059387;28;20781;-47
2022/05/28 09:58:14;;;;;;;2.30;2.10;;;16.10;99.90;;;;;;5091799;28;20478;-43
2022/05/28 10:00:49;;;;;;;3.40;1.90;;;15.90;99.90;;;;;;5091158;28;20518;-46
2022/05/28 10:06:14;;;;;;;3.43;2.37;;;15.90;99.90;;;;;;5091423;28;20493;-43
2022/05/28 10:08:41;;;;;;;4.80;2.17;;;15.90;99.90;;;;;;5089055;28;21003;-41
2022/05/28 10:11:14;;;;;;;3.80;2.53;;;15.90;99.90;;;;;;5091219;28;20517;-46
2022/05/28 10:13:46;;;;;;;3.10;2.40;;;15.30;99.90;;;;;;5091618;28;20471;-43
2022/05/28 10:16:16;;;;;;;2.53;2.30;;;14.90;99.90;;;;;;5091480;28;20467;-43
2022/05/28 10:18:52;;;;;;;3.63;2.10;;;14.70;99.90;;;;;;5091295;28;20464;-43
2022/05/28 10:21:26;;;;;;;8.50;2.10;;;14.70;99.90;;;;;;5091034;28;20443;-46
2022/05/28 10:23:55;;;;;;;1.43;1.10;;;14.30;99.90;;;;;;5091273;28;20447;-42
2022/05/28 10:26:25;;;;;;;2.83;1.60;;;13.90;99.90;;;;;;5091021;28;20542;-43
2022/05/28 10:28:55;;;;;;;1.53;1.30;;;13.70;99.90;;;;;;5090895;28;20474;-42
2022/05/28 10:31:26;;;;;;;1.20;1.10;;;13.60;99.90;;;;;;5091591;28;20486;-43
2022/05/28 10:33:55;;;;;;;1.40;1.00;;;13.60;99.90;;;;;;5091273;28;20444;-43
2022/05/28 10:36:25;;;;;;;2.13;1.20;;;13.50;99.90;;;;;;5091073;28;20816;-43
2022/05/28 10:38:52;;;;;;;1.80;1.40;;;13.40;99.90;;;;;;5090767;28;20990;-45
2022/05/28 10:41:22;;;;;;;2.10;1.20;;;13.40;99.90;;;;;;5090927;28;20453;-43
2022/05/28 10:43:50;;;;;;;1.23;1.07;;;13.40;99.90;;;;;;5090950;28;20478;-43
2022/05/28 10:46:34;;;;;;;1.70;0.73;;;13.40;99.90;;;;;;5090999;28;20471;-43
2022/05/28 10:49:14;;;;;;;3.77;1.30;;;13.50;99.90;;;;;;5090708;28;20497;-46
2022/05/28 10:51:53;;;;;;;1.40;1.30;;;13.40;99.90;;;;;;5090917;28;20869;-46
2022/05/28 10:54:30;;;;;;;1.40;1.20;;;13.40;99.90;;;;;;5090788;28;20449;-43
2022/05/28 10:57:07;;;;;;;1.30;0.97;;;13.40;99.90;;;;;;5091111;28;20512;-43
2022/05/28 10:59:50;;;;;;;1.40;1.07;;;13.30;99.90;;;;;;5090359;28;20518;-43
2022/05/28 11:02:53;;;;;;;1.50;1.10;;;13.30;99.90;;;;;;5089473;28;20955;-43
2022/05/28 11:05:37;;;;;;;2.43;1.50;;;13.20;99.90;;;;;;5055843;28;21052;-44
2022/05/28 11:08:11;;;;;;;1.33;0.90;;;13.20;99.90;;;;;;5091698;28;20866;-44
2022/05/28 11:10:55;;;;;;;1.93;1.20;;;13.30;99.90;;;;;;5093313;28;20437;-44
2022/05/28 11:13:54;;;;;;;1.67;0.97;;;13.30;99.90;;;;;;5093328;28;20435;-45
2022/05/28 11:16:32;;;;;;;1.80;1.40;;;13.30;99.90;;;;;;5093119;28;20912;-43
2022/05/28 11:19:18;;;;;;;2.10;1.33;;;13.30;99.90;;;;;;5094257;28;20897;-44
2022/05/28 11:22:06;;;;;;;1.97;1.43;;;13.30;99.90;;;;;;5092456;28;20956;-45
2022/05/28 11:24:52;;;;;;;1.53;1.40;;;13.20;99.90;;;;;;5093161;28;20894;-43
2022/05/28 11:27:41;;;;;;;1.43;1.30;;;13.20;99.90;;;;;;5093447;28;20458;-43
2022/05/28 11:30:13;;;;;;;2.37;1.43;;;13.20;99.90;;;;;;5093512;28;20482;-43
2022/05/28 11:32:43;;;;;;;1.40;1.30;;;13.30;99.90;;;;;;5094106;28;20854;-43
2022/05/28 11:35:17;;;;;;;1.50;1.13;;;13.30;99.90;;;;;;5094361;28;20456;-43
2022/05/28 11:37:52;;;;;;;1.77;1.10;;;13.40;99.90;;;;;;5093858;28;20435;-45
2022/05/28 11:40:22;;;;;;;1.40;1.27;;;13.50;99.90;;;;;;5093887;28;20438;-43
2022/05/28 11:42:54;;;;;;;1.30;1.20;;;13.50;99.90;;;;;;5093862;28;20519;-43
2022/05/28 11:45:28;;;;;;;2.10;1.90;;;13.50;99.90;;;;;;5093440;28;20542;-44
2022/05/28 11:47:58;;;;;;;1.70;1.53;;;13.60;99.90;;;;;;5093789;28;20812;-43
2022/05/28 11:53:34;;;;;;;1.60;1.30;;;13.90;99.90;;;;;;5093620;28;20469;-44
2022/05/28 11:56:06;;;;;;;2.33;1.57;;;14.10;99.90;;;;;;5093581;28;20491;-43
2022/05/28 11:58:36;;;;;;;1.50;1.20;;;14.20;99.90;;;;;;5093342;28;20981;-43
2022/05/28 12:01:09;;;;;;;2.17;1.60;;;14.40;99.90;;;;;;5093397;28;20505;-44
2022/05/28 12:03:37;;;;;;;1.63;1.50;;;14.50;99.90;;;;;;5093899;28;20444;-43
2022/05/28 12:06:25;;;;;;;1.90;1.50;;;14.40;99.90;;;;;;5093140;28;20488;-43
2022/05/28 12:09:01;;;;;;;2.17;1.80;;;14.30;99.90;;;;;;5092951;28;20479;-43
2022/05/28 12:11:39;;;;;;;1.80;1.50;;;14.10;99.90;;;;;;5093386;28;20812;-45
2022/05/28 12:14:19;;;;;;;2.67;2.17;;;14.20;99.90;;;;;;5093282;28;20439;-44
2022/05/28 12:16:58;;;;;;;2.20;2.00;;;14.20;99.90;;;;;;5135877;22;20899;-46
2022/05/28 12:19:26;;;;;;;1.93;1.70;;;14.10;99.90;;;;;;5072085;28;20499;-45
2022/05/28 12:21:53;;;;;;;2.23;2.03;;;14.30;99.90;;;;;;5073145;28;20448;-47
2022/05/28 12:24:29;;;;;;;3.40;2.20;;;14.40;99.90;;;;;;5072564;28;20531;-45
2022/05/28 12:27:15;;;;;;;2.67;2.33;;;14.20;99.90;;;;;;5072537;28;20464;-45
2022/05/28 12:29:58;;;;;;;4.23;2.23;;;14.10;99.90;;;;;;5072211;28;20886;-45
2022/05/28 12:32:29;;;;;;;4.13;2.53;;;14.30;99.90;;;;;;5072689;28;20525;-48
2022/05/28 12:34:59;;;;;;;7.00;6.17;;;14.40;99.90;;;;;;5072500;28;20466;-45
2022/05/28 12:37:31;;;;;;;3.03;2.77;;;14.40;99.90;;;;;;5072559;28;20990;-45
2022/05/28 12:40:15;;;;;;;2.83;2.63;;;14.60;99.90;;;;;;5072326;28;20471;-45
2022/05/28 12:42:42;;;;;;;3.40;2.60;;;14.70;99.90;;;;;;5072439;28;20511;-48
2022/05/28 12:45:18;;;;;;;2.87;2.10;;;14.80;99.90;;;;;;5072411;28;20465;-45
2022/05/28 12:47:46;;;;;;;2.27;2.07;;;14.50;99.90;;;;;;5071929;28;20813;-45
2022/05/28 12:50:25;;;;;;;2.37;2.17;;;14.60;99.90;;;;;;5070441;28;20472;-47
2022/05/28 12:52:59;;;;;;;2.50;1.90;;;14.70;99.90;;;;;;5072280;28;20444;-47
2022/05/28 12:55:36;;;;;;;2.87;2.20;;;14.90;99.90;;;;;;5072340;28;20551;-45
2022/05/28 12:58:07;;;;;;;2.40;2.20;;;15.00;99.90;;;;;;5072257;28;20497;-45
2022/05/28 13:00:49;;;;;;;3.60;2.50;;;15.10;99.90;;;;;;5071854;28;20502;-45
2022/05/28 13:03:20;;;;;;;2.37;1.90;;;15.20;99.90;;;;;;5072299;28;20534;-45
2022/05/28 13:05:50;;;;;;;2.30;2.10;;;15.40;99.90;;;;;;5071871;28;20461;-44
2022/05/28 13:08:22;;;;;;;2.50;2.30;;;15.50;99.90;;;;;;5070835;28;20986;-45
2022/05/28 13:10:55;;;;;;;2.63;2.07;;;15.60;99.90;;;;;;5070022;28;20542;-45
2022/05/28 13:14:10;;;;;;;3.10;2.03;;;15.60;99.90;;;;;;5071202;28;20506;-45
2022/05/28 13:17:05;;;;;;;3.33;2.33;;;15.50;99.90;;;;;;5024030;28;20573;-45
2022/05/28 13:19:48;;;;;;;3.80;2.20;;;15.60;99.90;;;;;;5071899;28;20562;-45